createdAt,value
2018-02-12T20:07:06.439Z,8.10
2018-02-12T20:09:36.581Z,7.50
2018-02-12T20:12:03.978Z,7.40
2018-02-12T20:14:31.389Z,7.20
2018-02-12T20:16:59.861Z,7.00
2018-02-12T20:19:29.230Z,6.90
2018-02-12T20:21:58.471Z,6.90
2018-02-12T20:24:27.576Z,6.80
2018-02-12T20:26:54.988Z,6.80
2018-02-12T20:29:23.156Z,6.60
2018-02-12T20:31:53.527Z,6.60
2018-02-12T20:34:24.568Z,6.60
2018-02-12T20:36:52.101Z,6.60
2018-02-12T20:39:22.248Z,6.60
2018-02-12T20:41:51.865Z,6.50
2018-02-12T20:44:20.061Z,6.60
2018-02-12T20:46:47.995Z,6.70
2018-02-12T20:49:15.363Z,6.60
2018-02-12T20:51:44.696Z,6.70
2018-02-12T20:54:13.637Z,6.70
2018-02-12T20:56:42.564Z,6.60
2018-02-12T20:59:09.928Z,6.60
2018-02-12T21:01:40.678Z,6.50
2018-02-12T21:04:09.035Z,6.50
2018-02-12T21:06:36.518Z,6.40
2018-02-12T21:09:05.113Z,6.40
2018-02-12T21:11:34.066Z,6.30
2018-02-12T21:14:02.767Z,6.30
2018-02-12T21:16:32.676Z,6.40
2018-02-12T21:19:02.605Z,6.60
2018-02-12T21:21:31.264Z,6.60
2018-02-12T21:23:59.641Z,6.60
2018-02-12T21:26:27.419Z,6.60
2018-02-12T21:28:55.696Z,6.50
2018-02-12T21:31:23.090Z,6.50
2018-02-12T21:33:53.318Z,6.40
2018-02-12T21:36:20.769Z,6.40
2018-02-12T21:38:49.453Z,6.30
2018-02-12T21:41:16.885Z,6.20
2018-02-12T21:43:46.144Z,6.20
2018-02-12T21:46:13.532Z,6.10
2018-02-12T21:48:43.546Z,6.00
2018-02-12T21:51:14.514Z,5.90
2018-02-12T21:53:44.208Z,5.90
2018-02-12T21:56:12.494Z,5.90
2018-02-12T21:58:41.645Z,6.00
2018-02-12T22:01:13.536Z,6.00
2018-02-12T22:03:42.776Z,6.00
2018-02-12T22:06:11.943Z,5.90
2018-02-12T22:08:43.758Z,6.00
2018-02-12T22:11:11.107Z,5.90
2018-02-12T22:13:40.272Z,5.90
2018-02-12T22:16:07.671Z,6.00
2018-02-12T22:18:35.980Z,6.00
2018-02-12T22:21:06.730Z,6.00
2018-02-12T22:23:34.088Z,6.00
2018-02-12T22:26:01.499Z,6.00
2018-02-12T22:28:31.762Z,5.90
2018-02-12T22:31:02.155Z,5.90
2018-02-12T22:33:30.271Z,5.70
2018-02-12T22:35:59.396Z,5.60
2018-02-12T22:38:26.839Z,5.70
2018-02-12T22:40:55.100Z,5.80
2018-02-12T22:43:26.053Z,5.80
2018-02-12T22:45:54.197Z,5.90
2018-02-12T22:48:21.552Z,5.90
2018-02-12T22:50:50.613Z,5.80
2018-02-12T22:53:18.729Z,5.80
2018-02-12T22:55:46.131Z,5.90
2018-02-12T22:58:14.374Z,5.90
2018-02-12T23:00:41.729Z,5.90
2018-02-12T23:03:09.151Z,5.80
2018-02-12T23:05:36.490Z,5.90
2018-02-12T23:08:04.554Z,5.80
2018-02-12T23:10:32.631Z,5.80
2018-02-12T23:13:00.739Z,5.80
2018-02-12T23:15:32.794Z,5.90
2018-02-12T23:18:00.428Z,6.00
2018-02-12T23:22:56.805Z,6.00
2018-02-12T23:25:24.152Z,6.00
2018-02-12T23:27:52.252Z,6.00
2018-02-12T23:30:19.642Z,6.00
2018-02-12T23:37:44.375Z,5.80
2018-02-12T23:42:40.759Z,6.00
2018-02-12T23:45:08.852Z,5.90
2018-02-12T23:52:32.733Z,5.70
2018-02-12T23:57:28.463Z,5.60
